SGAS/ASU METAR and TAF weather

Enter ICAO airport designator
Station Type Date Time Source
SGAS METAR 2019/02/17 15:00 UTC NOAA

SGAS 171500Z 22005KT 180V310 9999 BKN033 29/22 Q1010


Station Type Date Time Source
SGAS Decoded METAR 2019/02/17 15:00 UTC NOAA

Asuncion / Aeropuerto, Paraguay (SGAS) 25-16S 057-38W 101M
Feb 17, 2019 - 10:00 AM EST / 2019.02.17 1500 UTC
Wind: from the SW (220 degrees) at 6 MPH (5 KT) (direction variable):0
Visibility: greater than 7 mile(s):0
Sky conditions: mostly cloudy
Temperature: 84 F (29 C)
Dew Point: 71 F (22 C)
Relative Humidity: 65%
Pressure (altimeter): 29.83 in. Hg (1010 hPa)
ob: SGAS 171500Z 22005KT 180V310 9999 BKN033 29/22 Q1010
cycle: 15

Station Type Date Time Source
SGAS TAF 2019/02/17 12:45 UTC NOAA

TAF TAF SGAS 171043Z 1712/1812 00000KT CAVOK TX28/1719Z TN21/1809Z
BECMG 1713/1715 15011KT 9999 SCT027 PROB30 1718/1720 8000 RA BKN017
BECMG 1800/1803 14008KT 9999 SCT027


Example: see airport list